createdAt,value
2022-10-22T00:00:06.051Z,100387.25
2022-10-22T00:10:08.572Z,100372.34
2022-10-22T00:20:10.537Z,100339.78
2022-10-22T00:30:12.649Z,100340.41
2022-10-22T00:40:14.494Z,100318.38
2022-10-22T00:50:19.226Z,100293.81
2022-10-22T01:00:20.890Z,100291.94
2022-10-22T01:10:32.223Z,100273.50
2022-10-22T01:20:36.936Z,100260.50
2022-10-22T01:30:39.552Z,100270.69
2022-10-22T01:40:41.856Z,100254.31
2022-10-22T01:50:43.447Z,100253.22
2022-10-22T02:00:50.216Z,100249.09
2022-10-22T02:10:52.880Z,100236.75
2022-10-22T02:20:54.782Z,100227.38
2022-10-22T02:30:58.943Z,100215.91
2022-10-22T02:41:00.822Z,100201.78
2022-10-22T02:51:02.397Z,100211.75
2022-10-22T03:01:04.170Z,100173.59
2022-10-22T03:11:05.966Z,100174.47
2022-10-22T03:21:13.816Z,100158.00
2022-10-22T03:31:15.593Z,100156.78
2022-10-22T03:41:17.326Z,100152.13
2022-10-22T03:51:18.914Z,100151.31
2022-10-22T04:01:20.527Z,100137.03
2022-10-22T04:11:22.296Z,100124.19
2022-10-22T04:21:23.891Z,100122.91
2022-10-22T04:31:26.333Z,100125.31
2022-10-22T04:41:29.585Z,100121.06
2022-10-22T04:51:31.285Z,100098.56
2022-10-22T05:01:40.122Z,100088.53
2022-10-22T05:11:49.142Z,100106.31
2022-10-22T05:21:51.743Z,100103.25
2022-10-22T05:31:53.536Z,100090.72
2022-10-22T05:41:55.140Z,100107.19
2022-10-22T05:51:56.734Z,100100.06
2022-10-22T06:01:58.355Z,100105.63
2022-10-22T06:12:00.470Z,100109.19
2022-10-22T06:22:02.068Z,100106.44
2022-10-22T06:32:03.721Z,100141.50
2022-10-22T06:42:05.423Z,100127.00
2022-10-22T06:52:07.043Z,100097.88
2022-10-22T07:02:09.424Z,100106.94
2022-10-22T07:12:12.353Z,100114.69
2022-10-22T07:22:14.073Z,100079.50
2022-10-22T07:32:15.692Z,100065.72
2022-10-22T07:42:17.457Z,100079.50
2022-10-22T07:52:19.107Z,100084.38
2022-10-22T08:02:20.721Z,100097.28
2022-10-22T08:12:22.322Z,100091.38
2022-10-22T08:22:23.955Z,100081.09
2022-10-22T08:42:33.099Z,100074.97
2022-10-22T08:52:36.709Z,100078.28
2022-10-22T09:02:47.648Z,100083.38
2022-10-22T09:12:49.265Z,100065.13
2022-10-22T09:22:56.676Z,100035.56
2022-10-22T09:33:03.014Z,100012.88
2022-10-22T09:43:04.549Z,100004.91
2022-10-22T09:53:32.263Z,99993.63
2022-10-22T10:03:33.969Z,100005.16
2022-10-22T10:13:46.383Z,99979.25
2022-10-22T10:24:00.307Z,99990.78
2022-10-22T10:34:10.729Z,99986.06
2022-10-22T10:44:37.317Z,99959.72
2022-10-22T10:54:57.522Z,99964.06
2022-10-22T11:05:17.990Z,99948.78
2022-10-22T11:15:27.152Z,99947.16
2022-10-22T11:25:30.842Z,99931.69
2022-10-22T11:35:38.820Z,99922.88
2022-10-22T11:45:41.719Z,99905.47
2022-10-22T11:55:51.646Z,99910.97
2022-10-22T12:06:05.737Z,99890.38
2022-10-22T12:16:14.197Z,99867.28
2022-10-22T12:26:23.873Z,99892.31
2022-10-22T12:36:29.398Z,99865.25
2022-10-22T12:46:32.919Z,99861.75
2022-10-22T12:56:36.372Z,99863.38
2022-10-22T13:06:38.043Z,99853.59
2022-10-22T13:16:39.962Z,99836.66
2022-10-22T13:26:41.530Z,99843.28
2022-10-22T13:36:43.223Z,99854.59
2022-10-22T13:46:45.584Z,99847.47
2022-10-22T13:56:48.334Z,99851.88
2022-10-22T14:06:50.457Z,99832.47
2022-10-22T14:16:54.092Z,99796.53
2022-10-22T14:26:55.710Z,99781.25
2022-10-22T14:36:57.372Z,99764.38
2022-10-22T14:46:59.231Z,99748.28
2022-10-22T14:57:01.623Z,99726.13
2022-10-22T15:07:03.213Z,99722.56
2022-10-22T15:17:04.837Z,99734.66
2022-10-22T15:27:06.824Z,99749.75
2022-10-22T15:37:09.799Z,99751.25
2022-10-22T15:47:11.643Z,99743.09
2022-10-22T15:57:13.248Z,99766.22
2022-10-22T16:07:14.857Z,99764.38
2022-10-22T16:17:17.009Z,99774.53
2022-10-22T16:27:18.685Z,99783.03
2022-10-22T16:37:20.322Z,99775.81
2022-10-22T16:47:21.999Z,99777.72
2022-10-22T16:57:23.966Z,99768.31
2022-10-22T17:07:25.596Z,99767.81
2022-10-22T17:17:27.205Z,99745.84
2022-10-22T17:27:28.906Z,99716.03
2022-10-22T17:37:30.496Z,99739.34
2022-10-22T17:47:32.092Z,99716.06
2022-10-22T17:57:33.679Z,99739.66
2022-10-22T18:07:35.315Z,99727.34
2022-10-22T18:17:39.569Z,99705.13
2022-10-22T18:27:41.660Z,99681.00
2022-10-22T18:37:43.681Z,99685.09
2022-10-22T18:47:45.721Z,99697.47
2022-10-22T18:57:47.446Z,99688.09
2022-10-22T19:07:49.882Z,99686.69
2022-10-22T19:17:51.427Z,99680.66
2022-10-22T19:27:53.093Z,99672.66
2022-10-22T19:37:54.874Z,99664.66
2022-10-22T19:47:56.551Z,99664.66
2022-10-22T19:57:58.223Z,99673.16
2022-10-22T20:07:59.891Z,99676.25
2022-10-22T20:18:01.655Z,99685.03
2022-10-22T20:28:03.288Z,99685.78
2022-10-22T20:38:05.417Z,99666.44
2022-10-22T20:48:07.404Z,99663.50
2022-10-22T20:58:09.182Z,99645.88
2022-10-22T21:08:17.271Z,99641.16
2022-10-22T21:18:18.867Z,99625.31
2022-10-22T21:28:20.569Z,99607.41
2022-10-22T21:38:23.495Z,99607.94
2022-10-22T21:48:25.261Z,99594.47
2022-10-22T21:58:26.975Z,99586.81
2022-10-22T22:08:29.043Z,99584.63
2022-10-22T22:18:30.696Z,99574.75
2022-10-22T22:28:32.455Z,99573.44
2022-10-22T22:38:34.176Z,99571.19
2022-10-22T22:48:35.764Z,99567.41
2022-10-22T22:58:38.788Z,99559.44
2022-10-22T23:08:40.617Z,99571.00
2022-10-22T23:18:42.456Z,99562.78
2022-10-22T23:28:44.156Z,99560.59
2022-10-22T23:38:45.763Z,99551.00
2022-10-22T23:48:47.387Z,99557.31
2022-10-22T23:58:51.616Z,99554.88
